logo tempoitalia

Diretta Meteo Tirana, Albanialunedì 31 agosto ore 07:20

Mappa
Sereno 24 °C Sereno 24 Ore: T.min 22 T.max 37
Ponente Nord Km/h 3.7 Punto di rugiada: 19 °C Umidità: 73% Visibilità: 10 Km
Il sole sorge alle: 06:06 Il sole tramonta alle: 19:16
31 Agosto 2026 07:20 tempo osservato: Sereno Sereno 24 73 1014 vento: Nord N 3.7
31 Agosto 2026 06:50 tempo osservato: Sereno Sereno 23 78 1013 vento: Nord N 1.8
31 Agosto 2026 06:20 tempo osservato: Sereno Sereno 22 83 1013 vento: Nord N 3.7
31 Agosto 2026 05:50 tempo osservato: Sereno Sereno 22 83 1013 vento: Nord N 3.7
31 Agosto 2026 05:20 tempo osservato: Sereno Sereno 22 83 1013 vento: Nord N 5.5
31 Agosto 2026 04:50 tempo osservato: Sereno Sereno 23 83 1013 vento: Nord N 5.5
31 Agosto 2026 04:20 tempo osservato: Sereno Sereno 23 83 1013 vento: Nord N 5.5
31 Agosto 2026 03:50 tempo osservato: Sereno Sereno 23 83 1013 vento: Nord N 3.7
31 Agosto 2026 03:20 tempo osservato: Sereno Sereno 24 83 1013 vento: Nord N 3.7
31 Agosto 2026 02:50 tempo osservato: Sereno Sereno 24 83 1014 vento: Nord N 5.5
31 Agosto 2026 02:20 tempo osservato: Sereno Sereno 25 78 1013 vento: Nord N 3.7
31 Agosto 2026 01:50 tempo osservato: Sereno Sereno 24 83 1013 vento: Nord N 5.5
31 Agosto 2026 01:20 tempo osservato: Sereno Sereno 24 83 1013 vento: Nord N 0
31 Agosto 2026 00:50 tempo osservato: Sereno Sereno 25 78 1013 vento: Nord N 1.8
31 Agosto 2026 00:20 tempo osservato: Sereno Sereno 24 83 1013 vento: Nord N 3.7
30 Agosto 2026 23:50 tempo osservato: Sereno Sereno 25 78 1014 vento: Nord N 3.7
30 Agosto 2026 23:20 tempo osservato: Sereno Sereno 25 100 1014 vento: Nord N 5.5
30 Agosto 2026 22:50 tempo osservato: Sereno Sereno 25 100 1013 vento: Nord N 3.7
30 Agosto 2026 22:20 tempo osservato: Sereno Sereno 26 94 1013 vento: Nord N 1.8
30 Agosto 2026 21:50 tempo osservato: Sereno Sereno 27 94 1013 vento: Nord N 3.7
30 Agosto 2026 21:20 tempo osservato: Sereno Sereno 27 88 1013 vento: Nord N 3.7
30 Agosto 2026 20:50 tempo osservato: Sereno Sereno 27 94 1013 vento: Nord N 5.5
30 Agosto 2026 20:20 tempo osservato: Poco Nuvoloso Poco Nuvoloso 28 88 1013 vento: Nord N/NO 9.3
30 Agosto 2026 19:50 tempo osservato: Nuvoloso Nuvoloso 29 79 1013 vento: Nord NO 7.4
30 Agosto 2026 19:20 tempo osservato: Nuvoloso Nuvoloso 29 79 1013 vento: Nord N/NO 9.3
30 Agosto 2026 18:50 tempo osservato: Nuvoloso Nuvoloso 30 70 1013 vento: Nord N 5.5
30 Agosto 2026 18:20 tempo osservato: Sereno Sereno 30 70 1013 vento: Nord O 11.1
30 Agosto 2026 17:50 tempo osservato: Sereno Sereno 32 62 1013 vento: Nord O 13
30 Agosto 2026 17:20 tempo osservato: Sereno Sereno 33 59 1013 vento: Nord O 14.8
30 Agosto 2026 16:50 tempo osservato: Sereno Sereno 34 49 1013 vento: Nord O/SO 16.7
30 Agosto 2026 16:20 tempo osservato: Poco Nuvoloso Poco Nuvoloso 36 41 1013 vento: Nord O 14.8
30 Agosto 2026 15:50 tempo osservato: Poco Nuvoloso Poco Nuvoloso 37 37 1013 vento: Nord O/SO 13
30 Agosto 2026 15:20 tempo osservato: Sereno Sereno 36 44 1013 vento: Nord O 16.7
30 Agosto 2026 14:50 tempo osservato: Sereno Sereno 36 44 1013 vento: Nord O/SO 16.7
30 Agosto 2026 14:20 tempo osservato: Sereno Sereno 37 39 1013 vento: Nord O/SO 13
30 Agosto 2026 13:50 tempo osservato: Sereno Sereno 37 37 1013 vento: Nord O 9.3
30 Agosto 2026 13:20 tempo osservato: Sereno Sereno 37 39 1014 vento: Nord O/SO 13
30 Agosto 2026 12:50 tempo osservato: Sereno Sereno 37 32 1014 vento: Nord N 9.3
30 Agosto 2026 12:20 tempo osservato: Sereno Sereno 37 35 1014 vento: Nord N 7.4
30 Agosto 2026 11:50 tempo osservato: Sereno Sereno 35 34 1014 vento: Nord N 3.7
30 Agosto 2026 11:20 tempo osservato: Sereno Sereno 34 38 1015 vento: Nord N 5.5
30 Agosto 2026 10:50 tempo osservato: Sereno Sereno 34 38 1015 vento: Nord N 5.5
30 Agosto 2026 10:20 tempo osservato: Sereno Sereno 33 43 1015 vento: Nord N 5.5
30 Agosto 2026 09:50 tempo osservato: Sereno Sereno 31 48 1015 vento: Nord N 3.7
30 Agosto 2026 09:20 tempo osservato: Sereno Sereno 30 51 1015 vento: Nord N 3.7
30 Agosto 2026 08:50 tempo osservato: Sereno Sereno 29 54 1015 vento: Nord N 3.7
30 Agosto 2026 08:20 tempo osservato: Sereno Sereno 27 65 1015 vento: Nord N 3.7
30 Agosto 2026 07:50 tempo osservato: Sereno Sereno 26 61 1015 vento: Nord N 0